PWSweather.com
Personal Weather Stations
Station Observations
IPUMONTE2
MontelabbateIT 61025

MontelabbateIT 61025

Lat: 43.848, Lon: 12.7895

Elevation: 196

Station Type: LaCrosse WS3600

http://www.montelabbatemet.altervista.org/

Latest ConditionsUpdated 5:48:43 AM GMT+01:01 Saturday, Aug 18, 2018
Currently Today's Max Today's Min Today's Average
Temperature 64.0°F17.8°C 68.9°F20.5°C 64.0°F17.8°C 66.9°F19.4°C
Dew Point 58.4°F14.7°C 60.1°F15.6°C 58.2°F14.6°C 59.0°F15.0°C
Winds 2.7 mph SW4.3 kmh SW 3.0 mph -4.8 kmh - - 1.5 mph 2.4 kmh
Wind Gusts 3.3 mph5.3 kmh 3.5 mph5.6 kmh - -
Humidity 82% 82% 71% 76%
Pressure 29.84 in1010.5 mb 29.84 in1010.5 mb 29.81 in1009.5 mb -
Hour Temp Dew Point Humidity Winds Wind Gusts Pressure Precip Precip Rate Daily Precip Total
05:48 AM 64.0°F17.8°C 58.4°F14.7°C 82% 2.7 mph SW4.3 kmh SW 3.3 mph5.3 kmh 29.84 in1010.5 mb 0.00 in0.0 mm 0.00 in0.0 mm 0.00 in0.0 mm
05:43 AM 64.2°F17.9°C 58.2°F14.6°C 82% 2.5 mph WSW4.0 kmh WSW 2.9 mph4.7 kmh 29.83 in1010.2 mb 0.00 in0.0 mm 0.00 in0.0 mm 0.00 in0.0 mm
05:38 AM 64.2°F17.9°C 58.2°F14.6°C 82% 2.5 mph SW4.0 kmh SW 2.6 mph4.2 kmh 29.83 in1010.2 mb 0.00 in0.0 mm 0.00 in0.0 mm 0.00 in0.0 mm
05:33 AM 64.2°F17.9°C 58.2°F14.6°C 82% 2.4 mph SSW3.9 kmh SSW 2.6 mph4.2 kmh 29.83 in1010.2 mb 0.00 in0.0 mm 0.00 in0.0 mm 0.00 in0.0 mm
05:28 AM 64.2°F17.9°C 58.2°F14.6°C 82% 2.4 mph SSW3.9 kmh SSW 2.9 mph4.7 kmh 29.83 in1010.2 mb 0.00 in0.0 mm 0.00 in0.0 mm 0.00 in0.0 mm
05:23 AM 64.2°F17.9°C 58.2°F14.6°C 81% 2.5 mph SW4.0 kmh SW 2.9 mph4.7 kmh 29.83 in1010.2 mb 0.00 in0.0 mm 0.00 in0.0 mm 0.00 in0.0 mm
05:18 AM 64.2°F17.9°C 58.2°F14.6°C 81% 2.3 mph S3.7 kmh S 2.9 mph4.7 kmh 29.83 in1010.2 mb 0.00 in0.0 mm 0.00 in0.0 mm 0.00 in0.0 mm
05:13 AM 64.5°F18.1°C 58.6°F14.8°C 81% 2.6 mph SW4.2 kmh SW 3.5 mph5.6 kmh 29.83 in1010.2 mb 0.00 in0.0 mm 0.00 in0.0 mm 0.00 in0.0 mm
05:08 AM 64.5°F18.1°C 58.6°F14.8°C 81% 2.3 mph SW3.7 kmh SW 3.5 mph5.6 kmh 29.83 in1010.2 mb 0.00 in0.0 mm 0.00 in0.0 mm 0.00 in0.0 mm
05:03 AM 64.5°F18.1°C 58.2°F14.6°C 81% 3.0 mph SW4.8 kmh SW 3.5 mph5.6 kmh 29.83 in1010.2 mb 0.00 in0.0 mm 0.00 in0.0 mm 0.00 in0.0 mm
04:58 AM 64.7°F18.2°C 58.4°F14.7°C 80% 2.6 mph SW4.2 kmh SW 2.9 mph4.7 kmh 29.83 in1010.2 mb 0.00 in0.0 mm 0.00 in0.0 mm 0.00 in0.0 mm
04:53 AM 64.9°F18.3°C 58.2°F14.6°C 80% 2.4 mph SW3.9 kmh SW 2.6 mph4.2 kmh 29.82 in1009.8 mb 0.00 in0.0 mm 0.00 in0.0 mm 0.00 in0.0 mm
04:48 AM 64.9°F18.3°C 58.2°F14.6°C 80% 2.0 mph SSW3.2 kmh SSW 2.4 mph3.9 kmh 29.82 in1009.8 mb 0.00 in0.0 mm 0.00 in0.0 mm 0.00 in0.0 mm
04:43 AM 64.9°F18.3°C 58.2°F14.6°C 80% 2.4 mph SW3.9 kmh SW 2.4 mph3.9 kmh 29.82 in1009.8 mb 0.00 in0.0 mm 0.00 in0.0 mm 0.00 in0.0 mm
04:38 AM 64.9°F18.3°C 58.2°F14.6°C 79% 2.3 mph SSW3.7 kmh SSW 2.4 mph3.9 kmh 29.82 in1009.8 mb 0.00 in0.0 mm 0.00 in0.0 mm 0.00 in0.0 mm
04:33 AM 65.1°F18.4°C 58.4°F14.7°C 79% 1.5 mph SW2.4 kmh SW 2.2 mph3.5 kmh 29.82 in1009.8 mb 0.00 in0.0 mm 0.00 in0.0 mm 0.00 in0.0 mm
04:28 AM 65.4°F18.6°C 58.4°F14.7°C 78% 2.1 mph SW3.4 kmh SW 2.2 mph3.5 kmh 29.82 in1009.8 mb 0.00 in0.0 mm 0.00 in0.0 mm 0.00 in0.0 mm
04:23 AM 65.8°F18.8°C 58.4°F14.7°C 78% 0.8 mph SW1.3 kmh SW 1.7 mph2.7 kmh 29.82 in1009.8 mb 0.00 in0.0 mm 0.00 in0.0 mm 0.00 in0.0 mm
04:18 AM 65.8°F18.8°C 58.4°F14.7°C 77% 0.8 mph S1.3 kmh S 1.7 mph2.7 kmh 29.82 in1009.8 mb 0.00 in0.0 mm 0.00 in0.0 mm 0.00 in0.0 mm
04:13 AM 66.3°F19.1°C 58.9°F14.9°C 77% 0.4 mph W0.6 kmh W 0.4 mph0.6 kmh 29.81 in1009.5 mb 0.00 in0.0 mm 0.00 in0.0 mm 0.00 in0.0 mm
04:08 AM 66.5°F19.2°C 59.1°F15.1°C 78% 0.2 mph W0.3 kmh W 1.5 mph2.4 kmh 29.82 in1009.8 mb 0.00 in0.0 mm 0.00 in0.0 mm 0.00 in0.0 mm
04:03 AM 66.7°F19.3°C 59.3°F15.2°C 78% 1.3 mph SW2.1 kmh SW 2.0 mph3.2 kmh 29.82 in1009.8 mb 0.00 in0.0 mm 0.00 in0.0 mm 0.00 in0.0 mm
03:58 AM 66.7°F19.3°C 59.3°F15.2°C 78% 1.5 mph SSW2.4 kmh SSW 2.0 mph3.2 kmh 29.82 in1009.8 mb 0.00 in0.0 mm 0.00 in0.0 mm 0.00 in0.0 mm
03:53 AM 66.7°F19.3°C 59.3°F15.2°C 78% 0.3 mph SW0.5 kmh SW 2.0 mph3.2 kmh 29.82 in1009.8 mb 0.00 in0.0 mm 0.00 in0.0 mm 0.00 in0.0 mm
03:48 AM 66.7°F19.3°C 59.3°F15.2°C 78% 2.0 mph SW3.2 kmh SW 2.0 mph3.2 kmh 29.82 in1009.8 mb 0.00 in0.0 mm 0.00 in0.0 mm 0.00 in0.0 mm
03:43 AM 66.7°F19.3°C 59.3°F15.2°C 77% 1.3 mph SSW2.1 kmh SSW 2.2 mph3.5 kmh 29.82 in1009.8 mb 0.00 in0.0 mm 0.00 in0.0 mm 0.00 in0.0 mm
03:38 AM 66.7°F19.3°C 59.3°F15.2°C 77% 1.6 mph SW2.6 kmh SW 2.9 mph4.7 kmh 29.82 in1009.8 mb 0.00 in0.0 mm 0.00 in0.0 mm 0.00 in0.0 mm
03:33 AM 66.7°F19.3°C 59.3°F15.2°C 77% 2.7 mph SSW4.3 kmh SSW 3.1 mph5.0 kmh 29.82 in1009.8 mb 0.00 in0.0 mm 0.00 in0.0 mm 0.00 in0.0 mm
03:28 AM 66.9°F19.4°C 59.1°F15.1°C 76% 2.9 mph SSW4.7 kmh SSW 3.1 mph5.0 kmh 29.82 in1009.8 mb 0.00 in0.0 mm 0.00 in0.0 mm 0.00 in0.0 mm
03:23 AM 67.2°F19.6°C 59.0°F15.0°C 75% 2.2 mph SW3.5 kmh SW 2.6 mph4.2 kmh 29.82 in1009.8 mb 0.00 in0.0 mm 0.00 in0.0 mm 0.00 in0.0 mm
03:18 AM 67.6°F19.8°C 59.4°F15.2°C 76% 1.9 mph SSW3.1 kmh SSW 2.6 mph4.2 kmh 29.82 in1009.8 mb 0.00 in0.0 mm 0.00 in0.0 mm 0.00 in0.0 mm
03:12 AM 67.6°F19.8°C 59.4°F15.2°C 76% 2.5 mph WSW4.0 kmh WSW 2.6 mph4.2 kmh 29.82 in1009.8 mb 0.00 in0.0 mm 0.00 in0.0 mm 0.00 in0.0 mm
03:07 AM 67.6°F19.8°C 59.4°F15.2°C 76% 2.1 mph SW3.4 kmh SW 2.4 mph3.9 kmh 29.82 in1009.8 mb 0.00 in0.0 mm 0.00 in0.0 mm 0.00 in0.0 mm
03:02 AM 67.6°F19.8°C 59.4°F15.2°C 75% 2.1 mph S3.4 kmh S 2.4 mph3.9 kmh 29.82 in1009.8 mb 0.00 in0.0 mm 0.00 in0.0 mm 0.00 in0.0 mm
02:57 AM 67.8°F19.9°C 60.0°F15.6°C 76% 1.5 mph SSW2.4 kmh SSW 2.6 mph4.2 kmh 29.82 in1009.8 mb 0.00 in0.0 mm 0.00 in0.0 mm 0.00 in0.0 mm
02:52 AM 67.6°F19.8°C 59.8°F15.4°C 76% 1.9 mph SW3.1 kmh SW 3.3 mph5.3 kmh 29.81 in1009.5 mb 0.00 in0.0 mm 0.00 in0.0 mm 0.00 in0.0 mm
02:47 AM 67.2°F19.6°C 59.0°F15.0°C 76% 2.5 mph S4.0 kmh S 3.3 mph5.3 kmh 29.81 in1009.5 mb 0.00 in0.0 mm 0.00 in0.0 mm 0.00 in0.0 mm
02:42 AM 67.4°F19.7°C 59.2°F15.1°C 75% 2.1 mph S3.4 kmh S 2.2 mph3.5 kmh 29.82 in1009.8 mb 0.00 in0.0 mm 0.00 in0.0 mm 0.00 in0.0 mm
02:37 AM 67.4°F19.7°C 59.2°F15.1°C 75% 1.8 mph SSW2.9 kmh SSW 2.6 mph4.2 kmh 29.82 in1009.8 mb 0.00 in0.0 mm 0.00 in0.0 mm 0.00 in0.0 mm
02:32 AM 67.4°F19.7°C 59.2°F15.1°C 75% 2.2 mph S3.5 kmh S 2.6 mph4.2 kmh 29.82 in1009.8 mb 0.00 in0.0 mm 0.00 in0.0 mm 0.00 in0.0 mm
02:27 AM 67.4°F19.7°C 59.2°F15.1°C 75% 1.7 mph SSW2.7 kmh SSW 2.6 mph4.2 kmh 29.81 in1009.5 mb 0.00 in0.0 mm 0.00 in0.0 mm 0.00 in0.0 mm
02:22 AM 67.6°F19.8°C 59.0°F15.0°C 75% 2.2 mph S3.5 kmh S 2.6 mph4.2 kmh 29.81 in1009.5 mb 0.00 in0.0 mm 0.00 in0.0 mm 0.00 in0.0 mm
02:17 AM 67.6°F19.8°C 59.0°F15.0°C 74% 0.5 mph SW0.8 kmh SW 1.5 mph2.4 kmh 29.82 in1009.8 mb 0.00 in0.0 mm 0.00 in0.0 mm 0.00 in0.0 mm
02:12 AM 67.8°F19.9°C 59.2°F15.1°C 74% 0.8 mph SW1.3 kmh SW 0.8 mph1.3 kmh 29.81 in1009.5 mb 0.00 in0.0 mm 0.00 in0.0 mm 0.00 in0.0 mm
02:07 AM 68.1°F20.1°C 59.5°F15.3°C 74% 0.8 mph SW1.3 kmh SW 1.3 mph2.1 kmh 29.82 in1009.8 mb 0.00 in0.0 mm 0.00 in0.0 mm 0.00 in0.0 mm
02:02 AM 68.1°F20.1°C 59.5°F15.3°C 74% 0.2 mph WSW0.3 kmh WSW 1.3 mph2.1 kmh 29.82 in1009.8 mb 0.00 in0.0 mm 0.00 in0.0 mm 0.00 in0.0 mm
01:57 AM 68.5°F20.3°C 59.9°F15.5°C 74% 1.3 mph SSW2.1 kmh SSW 1.3 mph2.1 kmh 29.82 in1009.8 mb 0.00 in0.0 mm 0.00 in0.0 mm 0.00 in0.0 mm
01:52 AM 68.3°F20.2°C 60.1°F15.6°C 74% 1.2 mph WSW1.9 kmh WSW 1.5 mph2.4 kmh 29.82 in1009.8 mb 0.00 in0.0 mm 0.00 in0.0 mm 0.00 in0.0 mm
01:47 AM 68.0°F20.0°C 59.4°F15.2°C 75% 0.8 mph SSW1.3 kmh SSW 1.5 mph2.4 kmh 29.82 in1009.8 mb 0.00 in0.0 mm 0.00 in0.0 mm 0.00 in0.0 mm
01:42 AM 68.0°F20.0°C 59.4°F15.2°C 74% 1.5 mph SSW2.4 kmh SSW 1.5 mph2.4 kmh 29.82 in1009.8 mb 0.00 in0.0 mm 0.00 in0.0 mm 0.00 in0.0 mm
01:37 AM 67.8°F19.9°C 59.2°F15.1°C 74% 1.0 mph SW1.6 kmh SW 1.3 mph2.1 kmh 29.82 in1009.8 mb 0.00 in0.0 mm 0.00 in0.0 mm 0.00 in0.0 mm
01:32 AM 67.8°F19.9°C 59.2°F15.1°C 74% 1.3 mph SSW2.1 kmh SSW 1.5 mph2.4 kmh 29.82 in1009.8 mb 0.00 in0.0 mm 0.00 in0.0 mm 0.00 in0.0 mm
01:27 AM 68.0°F20.0°C 59.4°F15.2°C 74% 0.5 mph SSW0.8 kmh SSW 2.0 mph3.2 kmh 29.82 in1009.8 mb 0.00 in0.0 mm 0.00 in0.0 mm 0.00 in0.0 mm
01:22 AM 68.0°F20.0°C 59.4°F15.2°C 74% 1.3 mph SSW2.1 kmh SSW 2.2 mph3.5 kmh 29.82 in1009.8 mb 0.00 in0.0 mm 0.00 in0.0 mm 0.00 in0.0 mm
01:17 AM 68.0°F20.0°C 59.0°F15.0°C 74% 2.2 mph SSW3.5 kmh SSW 2.2 mph3.5 kmh 29.82 in1009.8 mb 0.00 in0.0 mm 0.00 in0.0 mm 0.00 in0.0 mm
01:12 AM 68.0°F20.0°C 59.0°F15.0°C 73% 1.5 mph SSW2.4 kmh SSW 2.0 mph3.2 kmh 29.82 in1009.8 mb 0.00 in0.0 mm 0.00 in0.0 mm 0.00 in0.0 mm
01:07 AM 68.1°F20.1°C 59.2°F15.1°C 73% 1.7 mph SW2.7 kmh SW 2.0 mph3.2 kmh 29.82 in1009.8 mb 0.00 in0.0 mm 0.00 in0.0 mm 0.00 in0.0 mm
01:02 AM 68.1°F20.1°C 59.2°F15.1°C 73% 1.2 mph SSW1.9 kmh SSW 1.7 mph2.7 kmh 29.83 in1010.2 mb 0.00 in0.0 mm 0.00 in0.0 mm 0.00 in0.0 mm
12:57 AM 68.1°F20.1°C 59.2°F15.1°C 73% 1.5 mph SW2.4 kmh SW 1.5 mph2.4 kmh 29.83 in1010.2 mb 0.00 in0.0 mm 0.00 in0.0 mm 0.00 in0.0 mm
12:52 AM 68.1°F20.1°C 59.2°F15.1°C 73% 0.5 mph SW0.8 kmh SW 1.3 mph2.1 kmh 29.83 in1010.2 mb 0.00 in0.0 mm 0.00 in0.0 mm 0.00 in0.0 mm
12:47 AM 68.1°F20.1°C 59.2°F15.1°C 73% 0.7 mph SSW1.1 kmh SSW 1.3 mph2.1 kmh 29.83 in1010.2 mb 0.00 in0.0 mm 0.00 in0.0 mm 0.00 in0.0 mm
12:42 AM 68.3°F20.2°C 59.3°F15.2°C 73% 0.4 mph SW0.6 kmh SW 1.1 mph1.8 kmh 29.82 in1009.8 mb 0.00 in0.0 mm 0.00 in0.0 mm 0.00 in0.0 mm
12:37 AM 68.1°F20.1°C 59.2°F15.1°C 73% 1.1 mph SSW1.8 kmh SSW 1.1 mph1.8 kmh 29.82 in1009.8 mb 0.00 in0.0 mm 0.00 in0.0 mm 0.00 in0.0 mm
12:32 AM 68.3°F20.2°C 59.3°F15.2°C 73% 0.2 mph SSW0.3 kmh SSW 1.5 mph2.4 kmh 29.82 in1009.8 mb 0.00 in0.0 mm 0.00 in0.0 mm 0.00 in0.0 mm
12:27 AM 68.5°F20.3°C 59.1°F15.1°C 73% 0.6 mph SSW1.0 kmh SSW 1.5 mph2.4 kmh 29.83 in1010.2 mb 0.00 in0.0 mm 0.00 in0.0 mm 0.00 in0.0 mm
12:22 AM 68.5°F20.3°C 59.1°F15.1°C 72% 1.3 mph SW2.1 kmh SW 1.5 mph2.4 kmh 29.83 in1010.2 mb 0.00 in0.0 mm 0.00 in0.0 mm 0.00 in0.0 mm
12:17 AM 68.5°F20.3°C 59.1°F15.1°C 72% Calm Calm 0.2 mph0.3 kmh 29.82 in1009.8 mb 0.00 in0.0 mm 0.00 in0.0 mm 0.00 in0.0 mm
12:12 AM 68.7°F20.4°C 58.9°F14.9°C 71% Calm Calm 0.2 mph0.3 kmh 29.82 in1009.8 mb 0.00 in0.0 mm 0.00 in0.0 mm 0.00 in0.0 mm
12:07 AM 68.9°F20.5°C 59.1°F15.1°C 71% 0.2 mph WSW0.3 kmh WSW 0.2 mph0.3 kmh 29.82 in1009.8 mb 0.00 in0.0 mm 0.00 in0.0 mm 0.00 in0.0 mm
12:02 AM 68.9°F20.5°C 59.1°F15.1°C 71% Calm Calm -- 29.82 in1009.8 mb 0.00 in0.0 mm 0.00 in0.0 mm 0.00 in0.0 mm